createdAt,value
2023-04-01T00:00:48.164Z,93377.00
2023-04-01T00:01:48.182Z,93379.00
2023-04-01T00:02:48.255Z,93379.00
2023-04-01T00:03:48.332Z,93381.00
2023-04-01T00:04:48.267Z,93377.00
2023-04-01T00:05:48.243Z,93379.00
2023-04-01T00:06:48.283Z,93381.00
2023-04-01T00:07:48.282Z,93383.00
2023-04-01T00:08:48.324Z,93379.00
2023-04-01T00:09:48.321Z,93379.00
2023-04-01T00:10:48.343Z,93381.00
2023-04-01T00:11:48.369Z,93383.00
2023-04-01T00:12:48.387Z,93383.00
2023-04-01T00:13:48.442Z,93383.00
2023-04-01T00:14:48.448Z,93383.00
2023-04-01T00:15:48.474Z,93381.00
2023-04-01T00:16:48.496Z,93379.00
2023-04-01T00:17:48.530Z,93375.00
2023-04-01T00:18:48.622Z,93375.00
2023-04-01T00:19:48.539Z,93377.00
2023-04-01T00:20:48.571Z,93379.00
2023-04-01T00:21:48.587Z,93379.00
2023-04-01T00:22:48.614Z,93375.00
2023-04-01T00:23:48.623Z,93371.00
2023-04-01T00:24:48.648Z,93375.00
2023-04-01T00:25:48.696Z,93377.00
2023-04-01T00:26:48.686Z,93375.00
2023-04-01T00:27:48.688Z,93375.00
2023-04-01T00:28:48.712Z,93375.00
2023-04-01T00:29:48.741Z,93369.00
2023-04-01T00:30:48.754Z,93371.00
2023-04-01T00:31:48.820Z,93375.00
2023-04-01T00:32:48.802Z,93373.00
2023-04-01T00:33:48.798Z,93373.00
2023-04-01T00:34:48.839Z,93371.00
2023-04-01T00:35:48.862Z,93369.00
2023-04-01T00:36:48.865Z,93371.00
2023-04-01T00:37:48.976Z,93369.00
2023-04-01T00:38:48.884Z,93369.00
2023-04-01T00:39:48.921Z,93371.00
2023-04-01T00:40:48.977Z,93371.00
2023-04-01T00:41:48.953Z,93371.00
2023-04-01T00:42:48.971Z,93373.00
2023-04-01T00:43:49.000Z,93371.00
2023-04-01T00:44:49.065Z,93367.00
2023-04-01T00:45:49.079Z,93364.00
2023-04-01T00:46:49.147Z,93362.00
2023-04-01T00:47:49.182Z,93362.00
2023-04-01T00:48:49.128Z,93362.00
2023-04-01T00:49:49.123Z,93362.00
2023-04-01T00:50:49.137Z,93360.00
2023-04-01T00:51:49.175Z,93358.00
2023-04-01T00:52:49.173Z,93360.00
2023-04-01T00:53:49.212Z,93360.00
2023-04-01T00:54:49.244Z,93362.00
2023-04-01T00:55:49.262Z,93360.00
2023-04-01T00:56:49.305Z,93362.00
2023-04-01T00:57:49.274Z,93362.00
2023-04-01T00:58:49.396Z,93362.00
2023-04-01T00:59:49.328Z,93360.00
2023-04-01T01:00:49.383Z,93360.00
2023-04-01T01:01:49.382Z,93364.00
2023-04-01T01:02:49.437Z,93366.00
2023-04-01T01:03:49.439Z,93366.00
2023-04-01T01:04:49.409Z,93366.00
2023-04-01T01:05:49.909Z,93364.00
2023-04-01T01:06:49.439Z,93364.00
2023-04-01T01:07:49.453Z,93362.00
2023-04-01T01:08:49.487Z,93362.00
2023-04-01T01:09:49.508Z,93356.00
2023-04-01T01:10:49.505Z,93354.00
2023-04-01T01:11:49.551Z,93354.00
2023-04-01T01:12:49.549Z,93356.00
2023-04-01T01:13:49.595Z,93356.00
2023-04-01T01:14:49.701Z,93352.00
2023-04-01T01:15:49.621Z,93350.00
2023-04-01T01:16:49.701Z,93350.00
2023-04-01T01:17:49.765Z,93352.00
2023-04-01T01:18:49.681Z,93356.00
2023-04-01T01:19:49.736Z,93352.00
2023-04-01T01:20:49.752Z,93350.00
2023-04-01T01:21:49.748Z,93346.00
2023-04-01T01:22:49.784Z,93346.00
2023-04-01T01:23:49.788Z,93346.00
2023-04-01T01:24:49.866Z,93348.00
2023-04-01T01:25:49.906Z,93348.00
2023-04-01T01:26:49.899Z,93348.00
2023-04-01T01:27:49.886Z,93348.00
2023-04-01T01:28:50.101Z,93344.00
2023-04-01T01:29:49.954Z,93336.00
2023-04-01T01:30:50.776Z,93336.00
2023-04-01T01:31:49.947Z,93346.00
2023-04-01T01:32:50.768Z,93336.00
2023-04-01T01:33:50.768Z,93334.00
2023-04-01T01:34:50.772Z,93330.00
2023-04-01T01:35:50.007Z,93329.00
2023-04-01T01:36:50.033Z,93330.00
2023-04-01T01:37:50.023Z,93329.00
2023-04-01T01:38:50.078Z,93329.00
2023-04-01T01:39:50.070Z,93327.00
2023-04-01T01:40:50.120Z,93329.00
2023-04-01T01:41:50.122Z,93323.00
2023-04-01T01:42:50.174Z,93325.00
2023-04-01T01:43:50.179Z,93330.00
2023-04-01T01:44:50.329Z,93325.00
2023-04-01T01:45:50.217Z,93327.00
2023-04-01T01:46:50.330Z,93330.00
2023-04-01T01:47:50.381Z,93332.00
2023-04-01T01:48:50.391Z,93330.00
2023-04-01T01:49:51.298Z,93336.00
2023-04-01T01:50:50.404Z,93330.00
2023-04-01T01:51:51.274Z,93327.00
2023-04-01T01:52:50.390Z,93325.00
2023-04-01T01:53:50.605Z,93325.00
2023-04-01T01:54:50.450Z,93325.00
2023-04-01T01:55:50.444Z,93323.00
2023-04-01T01:56:50.519Z,93323.00
2023-04-01T01:57:50.451Z,93323.00
2023-04-01T01:58:50.509Z,93321.00
2023-04-01T01:59:50.769Z,93319.00
2023-04-01T02:00:50.562Z,93315.00
2023-04-01T02:01:50.648Z,93319.00
2023-04-01T02:02:50.619Z,93317.00
2023-04-01T02:03:50.613Z,93321.00
2023-04-01T02:04:50.721Z,93321.00
2023-04-01T02:05:50.656Z,93327.00
2023-04-01T02:06:50.666Z,93327.00
2023-04-01T02:07:50.691Z,93327.00
2023-04-01T02:08:50.677Z,93329.00
2023-04-01T02:09:50.707Z,93330.00
2023-04-01T02:10:50.743Z,93334.00
2023-04-01T02:11:50.770Z,93334.00
2023-04-01T02:12:50.760Z,93336.00
2023-04-01T02:13:50.793Z,93334.00
2023-04-01T02:14:50.828Z,93334.00
2023-04-01T02:15:50.872Z,93344.00
2023-04-01T02:16:50.855Z,93344.00
2023-04-01T02:17:50.888Z,93346.00
2023-04-01T02:18:50.891Z,93348.00
2023-04-01T02:19:50.897Z,93348.00
2023-04-01T02:20:50.935Z,93350.00
2023-04-01T02:21:50.946Z,93352.00
2023-04-01T02:22:50.963Z,93352.00
2023-04-01T02:23:50.996Z,93352.00
2023-04-01T02:24:51.041Z,93352.00
2023-04-01T02:25:51.031Z,93354.00
2023-04-01T02:26:51.044Z,93354.00
2023-04-01T02:27:51.070Z,93354.00
2023-04-01T02:28:51.078Z,93354.00
2023-04-01T02:29:51.100Z,93350.00
2023-04-01T02:30:51.154Z,93350.00
2023-04-01T02:31:51.322Z,93350.00
2023-04-01T02:32:51.194Z,93354.00
2023-04-01T02:33:51.195Z,93356.00
2023-04-01T02:34:51.221Z,93356.00
2023-04-01T02:35:51.318Z,93356.00
2023-04-01T02:36:51.276Z,93356.00
2023-04-01T02:37:51.291Z,93364.00
2023-04-01T02:38:51.324Z,93364.00
2023-04-01T02:39:51.360Z,93364.00
2023-04-01T02:40:51.371Z,93362.00
2023-04-01T02:41:51.381Z,93358.00
2023-04-01T02:42:51.415Z,93356.00
2023-04-01T02:43:51.444Z,93358.00
2023-04-01T02:44:51.484Z,93356.00
2023-04-01T02:45:51.481Z,93354.00
2023-04-01T02:46:51.552Z,93356.00
2023-04-01T02:47:51.625Z,93358.00
2023-04-01T02:48:51.568Z,93358.00
2023-04-01T02:49:51.587Z,93360.00
2023-04-01T02:50:51.610Z,93362.00
2023-04-01T02:51:51.623Z,93364.00
2023-04-01T02:52:51.641Z,93362.00
2023-04-01T02:53:51.675Z,93360.00
2023-04-01T02:54:51.706Z,93364.00
2023-04-01T02:55:51.716Z,93366.00
2023-04-01T02:56:51.794Z,93366.00
2023-04-01T02:57:51.747Z,93366.00
2023-04-01T02:58:51.775Z,93369.00
2023-04-01T02:59:51.802Z,93373.00
2023-04-01T03:00:51.854Z,93377.00
2023-04-01T03:01:51.842Z,93379.00
2023-04-01T03:02:51.939Z,93381.00
2023-04-01T03:03:51.900Z,93379.00
2023-04-01T03:04:51.920Z,93381.00
2023-04-01T03:05:51.936Z,93383.00
2023-04-01T03:06:51.959Z,93383.00
2023-04-01T03:07:51.967Z,93383.00
2023-04-01T03:08:52.014Z,93385.00
2023-04-01T03:09:52.053Z,93387.00
2023-04-01T03:10:52.040Z,93385.00
2023-04-01T03:11:52.083Z,93385.00
2023-04-01T03:12:52.108Z,93385.00
2023-04-01T03:13:52.103Z,93387.00
2023-04-01T03:14:52.132Z,93385.00
2023-04-01T03:15:52.170Z,93385.00
2023-04-01T03:16:52.215Z,93383.00
2023-04-01T03:17:52.280Z,93385.00
2023-04-01T03:18:52.216Z,93385.00
2023-04-01T03:19:52.246Z,93385.00
2023-04-01T03:20:52.289Z,93385.00
2023-04-01T03:21:52.285Z,93381.00
2023-04-01T03:22:52.332Z,93381.00
2023-04-01T03:23:52.380Z,93379.00
2023-04-01T03:24:52.364Z,93379.00
2023-04-01T03:25:52.412Z,93381.00
2023-04-01T03:26:52.424Z,93381.00
2023-04-01T03:27:52.438Z,93381.00
2023-04-01T03:28:52.509Z,93381.00
2023-04-01T03:29:52.530Z,93381.00
2023-04-01T03:30:52.575Z,93383.00
2023-04-01T03:31:52.546Z,93385.00
2023-04-01T03:32:52.649Z,93385.00
2023-04-01T03:33:52.584Z,93383.00
2023-04-01T03:34:52.628Z,93383.00
2023-04-01T03:35:52.620Z,93379.00
2023-04-01T03:36:52.647Z,93383.00
2023-04-01T03:37:52.700Z,93381.00
2023-04-01T03:38:52.687Z,93385.00
2023-04-01T03:39:52.725Z,93387.00
2023-04-01T03:40:52.738Z,93391.00
2023-04-01T03:41:52.754Z,93387.00
2023-04-01T03:42:52.868Z,93391.00
2023-04-01T03:43:52.813Z,93397.00
2023-04-01T03:44:52.842Z,93397.00
2023-04-01T03:45:52.876Z,93401.00
2023-04-01T03:46:52.918Z,93399.00
2023-04-01T03:47:52.979Z,93399.00
2023-04-01T03:48:52.922Z,93401.00
2023-04-01T03:49:52.974Z,93399.00
2023-04-01T03:50:52.977Z,93401.00
2023-04-01T03:51:53.019Z,93403.00
2023-04-01T03:52:53.030Z,93405.00
2023-04-01T03:53:53.050Z,93409.00
2023-04-01T03:54:53.085Z,93409.00
2023-04-01T03:55:53.145Z,93411.00
2023-04-01T03:56:53.140Z,93413.00
2023-04-01T03:57:53.130Z,93413.00
2023-04-01T03:58:53.158Z,93413.00
2023-04-01T03:59:53.189Z,93413.00
2023-04-01T04:00:53.221Z,93413.00
2023-04-01T04:01:53.259Z,93413.00
2023-04-01T04:02:53.348Z,93411.00
2023-04-01T04:03:53.507Z,93411.00
2023-04-01T04:04:53.310Z,93411.00
2023-04-01T04:05:53.344Z,93413.00
2023-04-01T04:06:53.342Z,93413.00
2023-04-01T04:07:53.379Z,93415.00
2023-04-01T04:08:53.392Z,93415.00
2023-04-01T04:09:53.421Z,93413.00
2023-04-01T04:10:53.450Z,93415.00
2023-04-01T04:11:53.488Z,93415.00
2023-04-01T04:12:53.472Z,93415.00
2023-04-01T04:13:53.491Z,93417.00
2023-04-01T04:14:53.527Z,93419.00
2023-04-01T04:15:53.553Z,93417.00
2023-04-01T04:16:53.563Z,93421.00
2023-04-01T04:17:53.628Z,93421.00
2023-04-01T04:18:53.626Z,93421.00
2023-04-01T04:19:53.650Z,93422.00
2023-04-01T04:20:53.705Z,93422.00
2023-04-01T04:21:53.829Z,93428.00
2023-04-01T04:22:53.715Z,93426.00
2023-04-01T04:23:53.720Z,93428.00
2023-04-01T04:24:53.745Z,93430.00
2023-04-01T04:25:53.754Z,93430.00
2023-04-01T04:26:53.794Z,93428.00
2023-04-01T04:27:53.796Z,93422.00
2023-04-01T04:28:53.828Z,93422.00
2023-04-01T04:29:53.846Z,93421.00
2023-04-01T04:30:53.859Z,93424.00
2023-04-01T04:31:53.970Z,93426.00
2023-04-01T04:32:53.948Z,93426.00
2023-04-01T04:33:53.939Z,93421.00
2023-04-01T04:34:53.955Z,93419.00
2023-04-01T04:35:54.015Z,93415.00
2023-04-01T04:36:53.998Z,93407.00
2023-04-01T04:37:54.027Z,93409.00
2023-04-01T04:38:54.051Z,93415.00
2023-04-01T04:39:54.065Z,93419.00
2023-04-01T04:40:54.081Z,93422.00
2023-04-01T04:41:54.113Z,93419.00
2023-04-01T04:42:54.139Z,93422.00
2023-04-01T04:43:54.165Z,93426.00
2023-04-01T04:44:54.196Z,93426.00
2023-04-01T04:45:54.193Z,93428.00
2023-04-01T04:46:55.493Z,93426.00
2023-04-01T04:47:54.288Z,93432.00
2023-04-01T04:48:54.270Z,93430.00
2023-04-01T04:49:54.323Z,93432.00
2023-04-01T04:50:54.345Z,93434.00
2023-04-01T04:51:54.363Z,93430.00
2023-04-01T04:52:54.383Z,93432.00
2023-04-01T04:53:54.388Z,93434.00
2023-04-01T04:54:54.441Z,93434.00
2023-04-01T04:55:54.441Z,93438.00
2023-04-01T04:56:54.480Z,93438.00
2023-04-01T04:57:54.477Z,93438.00
2023-04-01T04:58:54.507Z,93442.00
2023-04-01T04:59:54.528Z,93444.00
2023-04-01T05:00:54.573Z,93446.00
2023-04-01T05:01:54.596Z,93448.00
2023-04-01T05:02:54.606Z,93454.00
2023-04-01T05:03:54.610Z,93460.00
2023-04-01T05:04:54.626Z,93462.00
2023-04-01T05:05:54.639Z,93466.00
2023-04-01T05:06:54.709Z,93470.00
2023-04-01T05:07:54.700Z,93470.00
2023-04-01T05:08:54.706Z,93470.00
2023-04-01T05:09:54.735Z,93472.00
2023-04-01T05:10:54.751Z,93466.00
2023-04-01T05:11:54.790Z,93470.00
2023-04-01T05:12:55.329Z,93474.00
2023-04-01T05:13:54.822Z,93474.00
2023-04-01T05:14:54.838Z,93470.00
2023-04-01T05:15:54.864Z,93466.00
2023-04-01T05:16:54.931Z,93464.00
2023-04-01T05:17:54.986Z,93468.00
2023-04-01T05:18:54.923Z,93466.00
2023-04-01T05:19:54.947Z,93470.00
2023-04-01T05:20:54.953Z,93468.00
2023-04-01T05:21:54.983Z,93462.00
2023-04-01T05:22:55.343Z,93456.00
2023-04-01T05:23:55.032Z,93458.00
2023-04-01T05:24:55.081Z,93456.00
2023-04-01T05:25:55.079Z,93456.00
2023-04-01T05:26:56.989Z,93456.00
2023-04-01T05:27:55.125Z,93460.00
2023-04-01T05:28:55.130Z,93462.00
2023-04-01T05:29:55.163Z,93462.00
2023-04-01T05:30:55.265Z,93462.00
2023-04-01T05:31:55.188Z,93460.00
2023-04-01T05:32:55.236Z,93458.00
2023-04-01T05:33:55.241Z,93456.00
2023-04-01T05:34:55.299Z,93460.00
2023-04-01T05:35:55.284Z,93462.00
2023-04-01T05:36:55.285Z,93462.00
2023-04-01T05:37:55.330Z,93462.00
2023-04-01T05:38:55.326Z,93464.00
2023-04-01T05:39:55.359Z,93466.00
2023-04-01T05:40:55.358Z,93468.00
2023-04-01T05:41:55.391Z,93466.00
2023-04-01T05:42:55.414Z,93468.00
2023-04-01T05:43:55.444Z,93466.00
2023-04-01T05:44:55.456Z,93468.00
2023-04-01T05:45:55.518Z,93470.00
2023-04-01T05:46:55.524Z,93472.00
2023-04-01T05:47:55.576Z,93474.00
2023-04-01T05:48:55.510Z,93474.00
2023-04-01T05:49:55.535Z,93474.00
2023-04-01T05:50:55.573Z,93474.00
2023-04-01T05:51:55.600Z,93474.00
2023-04-01T05:52:55.625Z,93477.00
2023-04-01T05:53:55.755Z,93476.00
2023-04-01T05:54:55.671Z,93476.00
2023-04-01T05:55:55.668Z,93476.00
2023-04-01T05:56:55.712Z,93476.00
2023-04-01T05:57:55.728Z,93476.00
2023-04-01T05:58:55.746Z,93477.00
2023-04-01T05:59:55.745Z,93477.00
2023-04-01T06:01:07.968Z,93479.00
2023-04-01T06:01:58.301Z,93481.00
2023-04-01T06:02:55.822Z,93481.00
2023-04-01T06:03:56.042Z,93483.00
2023-04-01T06:04:55.776Z,93483.00
2023-04-01T06:05:55.718Z,93485.00
2023-04-01T06:06:55.735Z,93485.00
2023-04-01T06:07:55.703Z,93487.00
2023-04-01T06:08:55.697Z,93487.00
2023-04-01T06:09:55.709Z,93495.00
2023-04-01T06:10:55.708Z,93491.00
2023-04-01T06:11:55.684Z,93499.00
2023-04-01T06:12:55.668Z,93495.00
2023-04-01T06:13:55.666Z,93501.00
2023-04-01T06:14:55.670Z,93499.00
2023-04-01T06:15:55.703Z,93495.00
2023-04-01T06:16:55.633Z,93497.00
2023-04-01T06:17:55.686Z,93493.00
2023-04-01T06:18:55.641Z,93499.00
2023-04-01T06:19:55.622Z,93499.00
2023-04-01T06:20:55.629Z,93501.00
2023-04-01T06:21:55.623Z,93501.00
2023-04-01T06:22:55.643Z,93499.00
2023-04-01T06:23:55.604Z,93499.00
2023-04-01T06:24:55.579Z,93497.00
2023-04-01T06:25:55.599Z,93497.00
2023-04-01T06:26:55.586Z,93493.00
2023-04-01T06:27:55.579Z,93489.00
2023-04-01T06:28:55.572Z,93489.00
2023-04-01T06:29:55.554Z,93481.00
2023-04-01T06:30:55.557Z,93476.00
2023-04-01T06:31:55.605Z,93466.00
2023-04-01T06:32:55.980Z,93460.00
2023-04-01T06:33:55.526Z,93460.00
2023-04-01T06:34:55.514Z,93462.00
2023-04-01T06:35:55.568Z,93462.00
2023-04-01T06:36:55.523Z,93462.00
2023-04-01T06:37:55.592Z,93458.00
2023-04-01T06:38:55.474Z,93464.00
2023-04-01T06:39:55.490Z,93466.00
2023-04-01T06:40:55.452Z,93468.00
2023-04-01T06:41:55.444Z,93468.00
2023-04-01T06:42:55.465Z,93468.00
2023-04-01T06:43:55.444Z,93470.00
2023-04-01T06:44:55.440Z,93466.00
2023-04-01T06:45:55.434Z,93464.00
2023-04-01T06:46:55.432Z,93466.00
2023-04-01T06:47:55.498Z,93466.00
2023-04-01T06:48:55.408Z,93468.00
2023-04-01T06:49:55.410Z,93466.00
2023-04-01T06:50:55.439Z,93466.00
2023-04-01T06:51:55.371Z,93468.00
2023-04-01T06:52:55.364Z,93468.00
2023-04-01T06:53:55.369Z,93474.00
2023-04-01T06:54:55.368Z,93472.00
2023-04-01T06:55:55.363Z,93470.00
2023-04-01T06:56:55.370Z,93470.00
2023-04-01T06:57:55.338Z,93470.00
2023-04-01T06:58:55.347Z,93470.00
2023-04-01T06:59:55.335Z,93470.00
2023-04-01T07:00:55.345Z,93468.00
2023-04-01T07:01:55.307Z,93466.00
2023-04-01T07:02:55.329Z,93464.00
2023-04-01T07:03:55.291Z,93460.00
2023-04-01T07:04:55.290Z,93460.00
2023-04-01T07:05:55.261Z,93462.00
2023-04-01T07:06:55.265Z,93464.00
2023-04-01T07:07:55.266Z,93464.00
2023-04-01T07:08:55.246Z,93464.00
2023-04-01T07:09:55.238Z,93464.00
2023-04-01T07:10:55.248Z,93466.00
2023-04-01T07:11:55.219Z,93466.00
2023-04-01T07:12:55.232Z,93468.00
2023-04-01T07:13:55.299Z,93470.00
2023-04-01T07:14:55.345Z,93474.00
2023-04-01T07:15:56.625Z,93472.00
2023-04-01T07:16:55.441Z,93472.00
2023-04-01T07:17:55.507Z,93472.00
2023-04-01T07:18:55.519Z,93474.00
2023-04-01T07:19:55.566Z,93472.00
2023-04-01T07:20:55.687Z,93470.00
2023-04-01T07:21:55.664Z,93470.00
2023-04-01T07:22:55.703Z,93474.00
2023-04-01T07:23:55.762Z,93474.00
2023-04-01T07:24:55.784Z,93476.00
2023-04-01T07:25:55.846Z,93474.00
2023-04-01T07:26:55.871Z,93476.00
2023-04-01T07:27:55.914Z,93476.00
2023-04-01T07:28:55.989Z,93477.00
2023-04-01T07:29:56.019Z,93477.00
2023-04-01T07:30:56.133Z,93477.00
2023-04-01T07:31:56.099Z,93477.00
2023-04-01T07:32:56.233Z,93481.00
2023-04-01T07:33:56.203Z,93485.00
2023-04-01T07:34:56.250Z,93485.00
2023-04-01T07:35:56.348Z,93483.00
2023-04-01T07:36:56.357Z,93483.00
2023-04-01T07:37:56.399Z,93483.00
2023-04-01T07:38:56.482Z,93485.00
2023-04-01T07:39:56.498Z,93487.00
2023-04-01T07:40:56.551Z,93489.00
2023-04-01T07:41:56.576Z,93489.00
2023-04-01T07:42:56.640Z,93491.00
2023-04-01T07:43:56.693Z,93487.00
2023-04-01T07:44:56.725Z,93489.00
2023-04-01T07:45:56.798Z,93491.00
2023-04-01T07:46:56.858Z,93491.00
2023-04-01T07:47:56.945Z,93491.00
2023-04-01T07:48:56.927Z,93489.00
2023-04-01T07:49:56.976Z,93489.00
2023-04-01T07:50:57.032Z,93493.00
2023-04-01T07:51:57.072Z,93485.00
2023-04-01T07:52:57.105Z,93485.00
2023-04-01T07:53:57.186Z,93485.00
2023-04-01T07:54:57.242Z,93483.00
2023-04-01T07:55:57.279Z,93487.00
2023-04-01T07:56:57.350Z,93487.00
2023-04-01T07:57:57.286Z,93485.00
2023-04-01T07:58:57.313Z,93487.00
2023-04-01T07:59:57.311Z,93483.00
2023-04-01T08:00:57.321Z,93477.00
2023-04-01T08:01:57.351Z,93479.00
2023-04-01T08:02:57.447Z,93477.00
2023-04-01T08:03:57.597Z,93477.00
2023-04-01T08:04:57.543Z,93477.00
2023-04-01T08:05:57.414Z,93479.00
2023-04-01T08:06:57.450Z,93481.00
2023-04-01T08:07:57.436Z,93479.00
2023-04-01T08:08:57.447Z,93479.00
2023-04-01T08:09:57.457Z,93481.00
2023-04-01T08:10:57.425Z,93483.00
2023-04-01T08:11:57.462Z,93479.00
2023-04-01T08:12:57.457Z,93476.00
2023-04-01T08:13:57.455Z,93474.00
2023-04-01T08:14:57.473Z,93474.00
2023-04-01T08:15:57.493Z,93472.00
2023-04-01T08:16:57.473Z,93470.00
2023-04-01T08:17:57.526Z,93470.00
2023-04-01T08:18:57.511Z,93466.00
2023-04-01T08:19:57.548Z,93466.00
2023-04-01T08:20:57.510Z,93462.00
2023-04-01T08:21:57.517Z,93462.00
2023-04-01T08:22:57.548Z,93462.00
2023-04-01T08:23:57.666Z,93462.00
2023-04-01T08:24:57.805Z,93466.00
2023-04-01T08:25:57.784Z,93468.00
2023-04-01T08:26:57.769Z,93468.00
2023-04-01T08:27:57.815Z,93468.00
2023-04-01T08:28:57.890Z,93466.00
2023-04-01T08:29:57.977Z,93466.00
2023-04-01T08:30:57.995Z,93464.00
2023-04-01T08:31:58.094Z,93468.00
2023-04-01T08:32:58.171Z,93470.00
2023-04-01T08:33:58.160Z,93466.00
2023-04-01T08:34:58.221Z,93462.00
2023-04-01T08:35:58.286Z,93462.00
2023-04-01T08:36:58.336Z,93460.00
2023-04-01T08:37:58.371Z,93464.00
2023-04-01T08:38:58.416Z,93464.00
2023-04-01T08:39:58.491Z,93466.00
2023-04-01T08:40:58.545Z,93466.00
2023-04-01T08:41:58.597Z,93466.00
2023-04-01T08:42:58.620Z,93466.00
2023-04-01T08:43:58.669Z,93464.00
2023-04-01T08:44:58.769Z,93464.00
2023-04-01T08:45:58.848Z,93462.00
2023-04-01T08:46:58.817Z,93460.00
2023-04-01T08:47:58.965Z,93458.00
2023-04-01T08:48:58.967Z,93460.00
2023-04-01T08:49:58.933Z,93462.00
2023-04-01T08:50:58.987Z,93464.00
2023-04-01T08:51:59.026Z,93460.00
2023-04-01T08:52:59.044Z,93462.00
2023-04-01T08:53:59.093Z,93462.00
2023-04-01T08:54:59.099Z,93460.00
2023-04-01T08:55:59.131Z,93460.00
2023-04-01T08:56:59.243Z,93456.00
2023-04-01T08:57:59.191Z,93460.00
2023-04-01T08:58:59.210Z,93460.00
2023-04-01T08:59:59.276Z,93448.00
2023-04-01T09:00:59.235Z,93444.00
2023-04-01T09:01:59.310Z,93446.00
2023-04-01T09:02:59.393Z,93442.00
2023-04-01T09:03:59.378Z,93438.00
2023-04-01T09:04:59.317Z,93436.00
2023-04-01T09:05:59.312Z,93438.00
2023-04-01T09:06:59.319Z,93436.00
2023-04-01T09:07:59.324Z,93438.00
2023-04-01T09:08:59.352Z,93440.00
2023-04-01T09:09:59.356Z,93440.00
2023-04-01T09:10:59.374Z,93440.00
2023-04-01T09:11:59.367Z,93440.00
2023-04-01T09:12:59.377Z,93440.00
2023-04-01T09:13:59.441Z,93442.00
2023-04-01T09:14:59.429Z,93442.00
2023-04-01T09:15:59.468Z,93442.00
2023-04-01T09:16:59.543Z,93442.00
2023-04-01T09:17:59.464Z,93440.00
2023-04-01T09:18:59.460Z,93442.00
2023-04-01T09:19:59.539Z,93434.00
2023-04-01T09:20:59.598Z,93436.00
2023-04-01T09:21:59.598Z,93436.00
2023-04-01T09:22:59.595Z,93436.00
2023-04-01T09:23:59.608Z,93432.00
2023-04-01T09:24:59.597Z,93430.00
2023-04-01T09:25:59.677Z,93430.00
2023-04-01T09:26:59.908Z,93432.00
2023-04-01T09:27:59.683Z,93428.00
2023-04-01T09:28:59.700Z,93430.00
2023-04-01T09:29:59.691Z,93426.00
2023-04-01T09:30:59.734Z,93424.00
2023-04-01T09:31:59.758Z,93422.00
2023-04-01T09:32:59.735Z,93421.00
2023-04-01T09:33:59.695Z,93422.00
2023-04-01T09:34:59.775Z,93419.00
2023-04-01T09:35:59.927Z,93419.00
2023-04-01T09:36:59.877Z,93415.00
2023-04-01T09:37:59.871Z,93417.00
2023-04-01T09:38:59.872Z,93413.00
2023-04-01T09:39:59.900Z,93413.00
2023-04-01T09:40:59.899Z,93411.00
2023-04-01T09:41:59.972Z,93409.00
2023-04-01T09:43:00.110Z,93407.00
2023-04-01T09:44:00.160Z,93403.00
2023-04-01T09:45:00.170Z,93401.00
2023-04-01T09:46:00.185Z,93401.00
2023-04-01T09:47:00.207Z,93399.00
2023-04-01T09:48:00.243Z,93393.00
2023-04-01T09:49:00.246Z,93395.00
2023-04-01T09:50:00.339Z,93389.00
2023-04-01T09:51:00.324Z,93389.00
2023-04-01T09:52:00.371Z,93391.00
2023-04-01T09:53:00.360Z,93387.00
2023-04-01T09:54:00.362Z,93385.00
2023-04-01T09:55:00.346Z,93387.00
2023-04-01T09:56:00.370Z,93387.00
2023-04-01T09:57:00.403Z,93385.00
2023-04-01T09:58:00.347Z,93383.00
2023-04-01T09:59:00.348Z,93385.00
2023-04-01T10:00:00.353Z,93385.00
2023-04-01T10:01:00.468Z,93383.00
2023-04-01T10:02:00.595Z,93383.00
2023-04-01T10:03:00.681Z,93377.00
2023-04-01T10:04:00.557Z,93377.00
2023-04-01T10:05:00.582Z,93375.00
2023-04-01T10:06:00.684Z,93373.00
2023-04-01T10:07:00.668Z,93373.00
2023-04-01T10:08:00.671Z,93367.00
2023-04-01T10:09:00.734Z,93366.00
2023-04-01T10:10:00.767Z,93362.00
2023-04-01T10:11:00.829Z,93367.00
2023-04-01T10:12:00.878Z,93369.00
2023-04-01T10:13:00.928Z,93367.00
2023-04-01T10:14:00.987Z,93367.00
2023-04-01T10:15:01.018Z,93367.00
2023-04-01T10:16:01.296Z,93366.00
2023-04-01T10:17:01.141Z,93364.00
2023-04-01T10:18:01.230Z,93364.00
2023-04-01T10:19:01.258Z,93362.00
2023-04-01T10:20:01.296Z,93364.00
2023-04-01T10:21:01.337Z,93362.00
2023-04-01T10:22:01.407Z,93356.00
2023-04-01T10:23:01.472Z,93358.00
2023-04-01T10:24:01.517Z,93356.00
2023-04-01T10:25:02.329Z,93354.00
2023-04-01T10:26:01.663Z,93356.00
2023-04-01T10:27:01.740Z,93360.00
2023-04-01T10:28:01.761Z,93354.00
2023-04-01T10:29:01.832Z,93354.00
2023-04-01T10:30:01.885Z,93350.00
2023-04-01T10:31:01.949Z,93350.00
2023-04-01T10:32:02.034Z,93348.00
2023-04-01T10:33:02.098Z,93350.00
2023-04-01T10:34:02.103Z,93346.00
2023-04-01T10:35:02.157Z,93348.00
2023-04-01T10:36:02.250Z,93348.00
2023-04-01T10:37:02.267Z,93346.00
2023-04-01T10:38:02.301Z,93334.00
2023-04-01T10:39:02.351Z,93344.00
2023-04-01T10:40:02.431Z,93332.00
2023-04-01T10:41:02.460Z,93332.00
2023-04-01T10:42:02.501Z,93329.00
2023-04-01T10:43:02.536Z,93332.00
2023-04-01T10:44:02.600Z,93329.00
2023-04-01T10:45:02.660Z,93329.00
2023-04-01T10:46:02.748Z,93325.00
2023-04-01T10:47:02.786Z,93327.00
2023-04-01T10:48:02.889Z,93325.00
2023-04-01T10:49:02.853Z,93323.00
2023-04-01T10:50:02.920Z,93317.00
2023-04-01T10:51:02.998Z,93313.00
2023-04-01T10:52:02.983Z,93313.00
2023-04-01T10:53:04.329Z,93311.00
2023-04-01T10:54:03.024Z,93313.00
2023-04-01T10:55:03.065Z,93309.00
2023-04-01T10:56:03.023Z,93311.00
2023-04-01T10:57:03.034Z,93311.00
2023-04-01T10:58:03.016Z,93311.00
2023-04-01T10:59:03.050Z,93309.00
2023-04-01T11:00:02.989Z,93307.00
2023-04-01T11:01:03.019Z,93307.00
2023-04-01T11:02:11.281Z,93307.00
2023-04-01T11:03:04.043Z,93303.00
2023-04-01T11:04:02.969Z,93305.00
2023-04-01T11:05:02.969Z,93301.00
2023-04-01T11:06:02.961Z,93299.00
2023-04-01T11:07:02.938Z,93295.00
2023-04-01T11:08:06.725Z,93299.00
2023-04-01T11:09:02.954Z,93299.00
2023-04-01T11:10:02.935Z,93293.00
2023-04-01T11:11:02.911Z,93297.00
2023-04-01T11:12:02.920Z,93293.00
2023-04-01T11:13:02.898Z,93295.00
2023-04-01T11:14:02.899Z,93293.00
2023-04-01T11:15:02.897Z,93297.00
2023-04-01T11:16:02.931Z,93295.00
2023-04-01T11:17:02.876Z,93297.00
2023-04-01T11:18:02.964Z,93295.00
2023-04-01T11:19:02.843Z,93295.00
2023-04-01T11:20:02.852Z,93293.00
2023-04-01T11:21:02.843Z,93293.00
2023-04-01T11:22:02.820Z,93293.00
2023-04-01T11:23:02.831Z,93293.00
2023-04-01T11:24:05.474Z,93299.00
2023-04-01T11:25:02.811Z,93299.00
2023-04-01T11:26:02.808Z,93295.00
2023-04-01T11:27:02.822Z,93295.00
2023-04-01T11:28:02.824Z,93291.00
2023-04-01T11:29:02.769Z,93285.00
2023-04-01T11:30:02.768Z,93287.00
2023-04-01T11:31:02.784Z,93287.00
2023-04-01T11:32:02.764Z,93289.00
2023-04-01T11:33:02.780Z,93289.00
2023-04-01T11:34:02.755Z,93287.00
2023-04-01T11:35:02.733Z,93291.00
2023-04-01T11:36:02.742Z,93291.00
2023-04-01T11:37:02.716Z,93295.00
2023-04-01T11:38:02.716Z,93293.00
2023-04-01T11:39:02.740Z,93291.00
2023-04-01T11:40:02.706Z,93289.00
2023-04-01T11:41:02.693Z,93289.00
2023-04-01T11:42:02.709Z,93291.00
2023-04-01T11:43:02.748Z,93291.00
2023-04-01T11:44:02.686Z,93287.00
2023-04-01T11:45:02.686Z,93285.00